sensor_id;sensor_type;location;lat;lon;timestamp;temperature;humidity
50955;DHT22;36966;48.064;-0.792;2023-03-01T00:00:41;15.90;33.90
50955;DHT22;36966;48.064;-0.792;2023-03-01T00:03:05;16.00;33.90
50955;DHT22;36966;48.064;-0.792;2023-03-01T00:05:25;15.90;33.90
50955;DHT22;36966;48.064;-0.792;2023-03-01T00:07:44;15.90;33.80
50955;DHT22;36966;48.064;-0.792;2023-03-01T00:10:04;15.90;33.80
50955;DHT22;36966;48.064;-0.792;2023-03-01T00:12:24;15.90;33.80
50955;DHT22;36966;48.064;-0.792;2023-03-01T00:14:43;15.90;33.80
50955;DHT22;36966;48.064;-0.792;2023-03-01T00:17:02;15.90;33.80
50955;DHT22;36966;48.064;-0.792;2023-03-01T00:19:22;15.90;33.70
50955;DHT22;36966;48.064;-0.792;2023-03-01T00:21:41;15.90;33.70
50955;DHT22;36966;48.064;-0.792;2023-03-01T00:24:01;15.90;33.70
50955;DHT22;36966;48.064;-0.792;2023-03-01T00:26:21;15.90;33.70
50955;DHT22;36966;48.064;-0.792;2023-03-01T00:28:41;15.80;33.60
50955;DHT22;36966;48.064;-0.792;2023-03-01T00:31:09;15.90;33.60
50955;DHT22;36966;48.064;-0.792;2023-03-01T00:33:28;15.80;33.60
50955;DHT22;36966;48.064;-0.792;2023-03-01T00:35:48;15.80;33.60
50955;DHT22;36966;48.064;-0.792;2023-03-01T00:38:07;15.80;33.60
50955;DHT22;36966;48.064;-0.792;2023-03-01T00:40:28;15.80;33.50
50955;DHT22;36966;48.064;-0.792;2023-03-01T00:42:48;15.80;33.50
50955;DHT22;36966;48.064;-0.792;2023-03-01T00:45:07;15.80;33.50
50955;DHT22;36966;48.064;-0.792;2023-03-01T00:47:28;15.80;33.50
50955;DHT22;36966;48.064;-0.792;2023-03-01T00:49:48;15.80;33.50
50955;DHT22;36966;48.064;-0.792;2023-03-01T00:52:07;15.80;33.50
50955;DHT22;36966;48.064;-0.792;2023-03-01T00:54:26;15.80;33.50
50955;DHT22;36966;48.064;-0.792;2023-03-01T00:56:45;15.80;33.50
50955;DHT22;36966;48.064;-0.792;2023-03-01T00:59:04;15.80;33.50
50955;DHT22;36966;48.064;-0.792;2023-03-01T01:01:26;15.80;33.40
50955;DHT22;36966;48.064;-0.792;2023-03-01T01:04:01;15.80;33.40
50955;DHT22;36966;48.064;-0.792;2023-03-01T01:06:32;15.80;33.40
50955;DHT22;36966;48.064;-0.792;2023-03-01T01:08:53;15.80;33.40
50955;DHT22;36966;48.064;-0.792;2023-03-01T01:11:13;15.70;33.40
50955;DHT22;36966;48.064;-0.792;2023-03-01T01:13:33;15.80;33.40
50955;DHT22;36966;48.064;-0.792;2023-03-01T01:15:52;15.70;33.30
50955;DHT22;36966;48.064;-0.792;2023-03-01T01:18:11;15.70;33.30
50955;DHT22;36966;48.064;-0.792;2023-03-01T01:20:31;15.70;33.30
50955;DHT22;36966;48.064;-0.792;2023-03-01T01:22:50;15.70;33.20
50955;DHT22;36966;48.064;-0.792;2023-03-01T01:25:10;15.70;33.30
50955;DHT22;36966;48.064;-0.792;2023-03-01T01:27:30;15.70;33.20
50955;DHT22;36966;48.064;-0.792;2023-03-01T01:29:49;15.70;33.30
50955;DHT22;36966;48.064;-0.792;2023-03-01T01:32:08;15.70;33.30
50955;DHT22;36966;48.064;-0.792;2023-03-01T01:34:27;15.70;33.30
50955;DHT22;36966;48.064;-0.792;2023-03-01T01:36:53;15.70;33.40
50955;DHT22;36966;48.064;-0.792;2023-03-01T01:39:13;15.70;33.40
50955;DHT22;36966;48.064;-0.792;2023-03-01T01:41:32;15.70;33.40
50955;DHT22;36966;48.064;-0.792;2023-03-01T01:47:19;15.70;33.50
50955;DHT22;36966;48.064;-0.792;2023-03-01T01:51:49;15.70;33.40
50955;DHT22;36966;48.064;-0.792;2023-03-01T01:54:14;15.70;33.40
50955;DHT22;36966;48.064;-0.792;2023-03-01T01:56:37;15.70;33.40
50955;DHT22;36966;48.064;-0.792;2023-03-01T01:58:58;15.70;33.30
50955;DHT22;36966;48.064;-0.792;2023-03-01T02:01:17;15.70;33.30
50955;DHT22;36966;48.064;-0.792;2023-03-01T02:03:39;15.70;33.30
50955;DHT22;36966;48.064;-0.792;2023-03-01T02:06:08;15.70;33.40
50955;DHT22;36966;48.064;-0.792;2023-03-01T02:08:34;15.70;33.40
50955;DHT22;36966;48.064;-0.792;2023-03-01T02:10:55;15.60;33.40
50955;DHT22;36966;48.064;-0.792;2023-03-01T02:13:15;15.60;33.40
50955;DHT22;36966;48.064;-0.792;2023-03-01T02:15:36;15.60;33.50
50955;DHT22;36966;48.064;-0.792;2023-03-01T02:17:56;15.60;33.50
50955;DHT22;36966;48.064;-0.792;2023-03-01T02:22:50;15.60;33.40
50955;DHT22;36966;48.064;-0.792;2023-03-01T02:27:54;15.60;33.40
50955;DHT22;36966;48.064;-0.792;2023-03-01T02:30:19;15.60;33.30
50955;DHT22;36966;48.064;-0.792;2023-03-01T02:32:40;15.50;33.30
50955;DHT22;36966;48.064;-0.792;2023-03-01T02:35:00;15.60;33.30
50955;DHT22;36966;48.064;-0.792;2023-03-01T02:37:20;15.50;33.30
50955;DHT22;36966;48.064;-0.792;2023-03-01T02:39:47;15.60;33.20
50955;DHT22;36966;48.064;-0.792;2023-03-01T02:42:14;15.50;33.30
50955;DHT22;36966;48.064;-0.792;2023-03-01T02:44:35;15.50;33.20
50955;DHT22;36966;48.064;-0.792;2023-03-01T02:46:56;15.50;33.30
50955;DHT22;36966;48.064;-0.792;2023-03-01T02:49:25;15.50;33.40
50955;DHT22;36966;48.064;-0.792;2023-03-01T02:54:28;15.50;33.40
50955;DHT22;36966;48.064;-0.792;2023-03-01T02:56:51;15.50;33.30
50955;DHT22;36966;48.064;-0.792;2023-03-01T02:59:10;15.50;33.30
50955;DHT22;36966;48.064;-0.792;2023-03-01T03:01:30;15.50;33.30
50955;DHT22;36966;48.064;-0.792;2023-03-01T03:03:55;15.50;33.30
50955;DHT22;36966;48.064;-0.792;2023-03-01T03:06:15;15.50;33.20
50955;DHT22;36966;48.064;-0.792;2023-03-01T03:08:34;15.40;33.20
50955;DHT22;36966;48.064;-0.792;2023-03-01T03:10:53;15.40;33.20
50955;DHT22;36966;48.064;-0.792;2023-03-01T03:13:14;15.50;33.20
50955;DHT22;36966;48.064;-0.792;2023-03-01T03:15:34;15.50;33.20
50955;DHT22;36966;48.064;-0.792;2023-03-01T03:17:55;15.40;33.20
50955;DHT22;36966;48.064;-0.792;2023-03-01T03:20:16;15.50;33.20
50955;DHT22;36966;48.064;-0.792;2023-03-01T03:22:38;15.50;33.20
50955;DHT22;36966;48.064;-0.792;2023-03-01T03:24:59;15.40;33.20
50955;DHT22;36966;48.064;-0.792;2023-03-01T03:27:18;15.40;33.30
50955;DHT22;36966;48.064;-0.792;2023-03-01T03:29:37;15.40;33.40
50955;DHT22;36966;48.064;-0.792;2023-03-01T03:31:56;15.40;33.30
50955;DHT22;36966;48.064;-0.792;2023-03-01T03:34:16;15.40;33.20
50955;DHT22;36966;48.064;-0.792;2023-03-01T03:36:37;15.40;33.20
50955;DHT22;36966;48.064;-0.792;2023-03-01T03:38:56;15.40;33.20
50955;DHT22;36966;48.064;-0.792;2023-03-01T03:41:16;15.40;33.10
50955;DHT22;36966;48.064;-0.792;2023-03-01T03:43:37;15.30;33.10
50955;DHT22;36966;48.064;-0.792;2023-03-01T03:45:56;15.40;33.10
50955;DHT22;36966;48.064;-0.792;2023-03-01T03:48:18;15.40;33.10
50955;DHT22;36966;48.064;-0.792;2023-03-01T03:50:38;15.40;33.10
50955;DHT22;36966;48.064;-0.792;2023-03-01T03:53:01;15.40;33.00
50955;DHT22;36966;48.064;-0.792;2023-03-01T03:55:20;15.30;33.00
50955;DHT22;36966;48.064;-0.792;2023-03-01T03:57:41;15.30;32.90
50955;DHT22;36966;48.064;-0.792;2023-03-01T04:00:00;15.40;33.00
50955;DHT22;36966;48.064;-0.792;2023-03-01T04:02:20;15.30;33.00
50955;DHT22;36966;48.064;-0.792;2023-03-01T04:04:41;15.30;33.00
50955;DHT22;36966;48.064;-0.792;2023-03-01T04:07:00;15.30;33.00
50955;DHT22;36966;48.064;-0.792;2023-03-01T04:09:19;15.30;33.00
50955;DHT22;36966;48.064;-0.792;2023-03-01T04:11:38;15.30;33.10
50955;DHT22;36966;48.064;-0.792;2023-03-01T04:13:58;15.30;33.10
50955;DHT22;36966;48.064;-0.792;2023-03-01T04:16:18;15.30;33.10
50955;DHT22;36966;48.064;-0.792;2023-03-01T04:18:37;15.30;33.20
50955;DHT22;36966;48.064;-0.792;2023-03-01T04:20:56;15.30;33.10
50955;DHT22;36966;48.064;-0.792;2023-03-01T04:23:17;15.30;33.10
50955;DHT22;36966;48.064;-0.792;2023-03-01T04:25:50;15.30;33.10
50955;DHT22;36966;48.064;-0.792;2023-03-01T04:28:13;15.30;33.00
50955;DHT22;36966;48.064;-0.792;2023-03-01T04:30:33;15.30;33.00
50955;DHT22;36966;48.064;-0.792;2023-03-01T04:32:54;15.30;32.90
50955;DHT22;36966;48.064;-0.792;2023-03-01T04:35:13;15.20;32.90
50955;DHT22;36966;48.064;-0.792;2023-03-01T04:37:33;15.20;32.90
50955;DHT22;36966;48.064;-0.792;2023-03-01T04:39:54;15.20;32.90
50955;DHT22;36966;48.064;-0.792;2023-03-01T04:42:14;15.30;32.90
50955;DHT22;36966;48.064;-0.792;2023-03-01T04:44:33;15.30;32.90
50955;DHT22;36966;48.064;-0.792;2023-03-01T04:46:53;15.30;32.90
50955;DHT22;36966;48.064;-0.792;2023-03-01T04:49:12;15.20;33.00
50955;DHT22;36966;48.064;-0.792;2023-03-01T04:51:32;15.20;33.00
50955;DHT22;36966;48.064;-0.792;2023-03-01T04:53:52;15.20;33.10
50955;DHT22;36966;48.064;-0.792;2023-03-01T04:56:12;15.20;33.00
50955;DHT22;36966;48.064;-0.792;2023-03-01T04:58:35;15.20;33.00
50955;DHT22;36966;48.064;-0.792;2023-03-01T05:00:55;15.20;32.90
50955;DHT22;36966;48.064;-0.792;2023-03-01T05:03:14;15.20;32.90
50955;DHT22;36966;48.064;-0.792;2023-03-01T05:05:38;15.20;33.00
50955;DHT22;36966;48.064;-0.792;2023-03-01T05:08:00;15.20;32.90
50955;DHT22;36966;48.064;-0.792;2023-03-01T05:10:20;15.20;32.90
50955;DHT22;36966;48.064;-0.792;2023-03-01T05:12:39;15.20;32.80
50955;DHT22;36966;48.064;-0.792;2023-03-01T05:14:58;15.20;32.80
50955;DHT22;36966;48.064;-0.792;2023-03-01T05:17:17;15.20;32.80
50955;DHT22;36966;48.064;-0.792;2023-03-01T05:19:36;15.20;32.90
50955;DHT22;36966;48.064;-0.792;2023-03-01T05:21:55;15.20;32.80
50955;DHT22;36966;48.064;-0.792;2023-03-01T05:24:21;15.20;32.90
50955;DHT22;36966;48.064;-0.792;2023-03-01T05:26:41;15.20;32.90
50955;DHT22;36966;48.064;-0.792;2023-03-01T05:29:00;15.20;33.00
50955;DHT22;36966;48.064;-0.792;2023-03-01T05:31:20;15.20;33.00
50955;DHT22;36966;48.064;-0.792;2023-03-01T05:33:40;15.20;33.00
50955;DHT22;36966;48.064;-0.792;2023-03-01T05:36:00;15.20;33.00
50955;DHT22;36966;48.064;-0.792;2023-03-01T05:38:20;15.20;33.00
50955;DHT22;36966;48.064;-0.792;2023-03-01T05:40:41;15.20;32.90
50955;DHT22;36966;48.064;-0.792;2023-03-01T05:43:00;15.20;32.80
50955;DHT22;36966;48.064;-0.792;2023-03-01T05:45:22;15.20;32.90
50955;DHT22;36966;48.064;-0.792;2023-03-01T05:47:42;15.20;32.80
50955;DHT22;36966;48.064;-0.792;2023-03-01T05:50:02;15.20;32.80
50955;DHT22;36966;48.064;-0.792;2023-03-01T05:52:22;15.20;32.90
50955;DHT22;36966;48.064;-0.792;2023-03-01T05:54:41;15.10;32.90
50955;DHT22;36966;48.064;-0.792;2023-03-01T05:57:00;15.10;33.00
50955;DHT22;36966;48.064;-0.792;2023-03-01T05:59:19;15.10;33.00
50955;DHT22;36966;48.064;-0.792;2023-03-01T06:01:38;15.10;32.90
50955;DHT22;36966;48.064;-0.792;2023-03-01T06:03:57;15.10;33.00
50955;DHT22;36966;48.064;-0.792;2023-03-01T06:06:17;15.10;33.00
50955;DHT22;36966;48.064;-0.792;2023-03-01T06:08:36;15.10;32.90
50955;DHT22;36966;48.064;-0.792;2023-03-01T06:10:55;15.10;32.90
50955;DHT22;36966;48.064;-0.792;2023-03-01T06:13:15;15.10;32.90
50955;DHT22;36966;48.064;-0.792;2023-03-01T06:15:34;15.10;32.80
50955;DHT22;36966;48.064;-0.792;2023-03-01T06:17:54;15.10;32.80
50955;DHT22;36966;48.064;-0.792;2023-03-01T06:20:19;15.10;32.80
50955;DHT22;36966;48.064;-0.792;2023-03-01T06:22:39;15.10;32.80
50955;DHT22;36966;48.064;-0.792;2023-03-01T06:24:58;15.10;32.90
50955;DHT22;36966;48.064;-0.792;2023-03-01T06:27:18;15.10;32.90
50955;DHT22;36966;48.064;-0.792;2023-03-01T06:29:37;15.10;32.90
50955;DHT22;36966;48.064;-0.792;2023-03-01T06:31:56;15.10;32.90
50955;DHT22;36966;48.064;-0.792;2023-03-01T06:34:15;15.10;33.00
50955;DHT22;36966;48.064;-0.792;2023-03-01T06:36:34;15.00;32.90
50955;DHT22;36966;48.064;-0.792;2023-03-01T06:38:53;15.10;32.80
50955;DHT22;36966;48.064;-0.792;2023-03-01T06:41:12;15.00;32.80
50955;DHT22;36966;48.064;-0.792;2023-03-01T06:43:32;15.00;32.80
50955;DHT22;36966;48.064;-0.792;2023-03-01T06:45:51;15.00;32.70
50955;DHT22;36966;48.064;-0.792;2023-03-01T06:48:10;15.00;32.70
50955;DHT22;36966;48.064;-0.792;2023-03-01T06:50:29;15.00;32.70
50955;DHT22;36966;48.064;-0.792;2023-03-01T06:52:56;15.10;32.70
50955;DHT22;36966;48.064;-0.792;2023-03-01T06:55:15;15.00;32.70
50955;DHT22;36966;48.064;-0.792;2023-03-01T06:57:34;15.00;32.80
50955;DHT22;36966;48.064;-0.792;2023-03-01T06:59:53;15.00;32.70
50955;DHT22;36966;48.064;-0.792;2023-03-01T07:02:14;15.00;32.80
50955;DHT22;36966;48.064;-0.792;2023-03-01T07:04:34;15.00;32.80
50955;DHT22;36966;48.064;-0.792;2023-03-01T07:06:53;15.00;32.80
50955;DHT22;36966;48.064;-0.792;2023-03-01T07:09:14;15.00;32.80
50955;DHT22;36966;48.064;-0.792;2023-03-01T07:11:33;15.00;32.70
50955;DHT22;36966;48.064;-0.792;2023-03-01T07:13:52;15.00;32.50
50955;DHT22;36966;48.064;-0.792;2023-03-01T07:16:11;15.00;32.40
50955;DHT22;36966;48.064;-0.792;2023-03-01T07:18:30;15.00;32.40
50955;DHT22;36966;48.064;-0.792;2023-03-01T07:20:49;15.00;32.40
50955;DHT22;36966;48.064;-0.792;2023-03-01T07:23:09;15.00;32.50
50955;DHT22;36966;48.064;-0.792;2023-03-01T07:25:28;15.00;32.40
50955;DHT22;36966;48.064;-0.792;2023-03-01T07:27:51;15.00;32.40
50955;DHT22;36966;48.064;-0.792;2023-03-01T07:30:11;15.00;32.40
50955;DHT22;36966;48.064;-0.792;2023-03-01T07:32:31;15.00;32.40
50955;DHT22;36966;48.064;-0.792;2023-03-01T07:34:51;15.00;32.50
50955;DHT22;36966;48.064;-0.792;2023-03-01T07:37:10;15.00;32.50
50955;DHT22;36966;48.064;-0.792;2023-03-01T07:39:30;15.00;32.50
50955;DHT22;36966;48.064;-0.792;2023-03-01T07:41:50;15.00;32.50
50955;DHT22;36966;48.064;-0.792;2023-03-01T07:44:09;15.00;32.40
50955;DHT22;36966;48.064;-0.792;2023-03-01T07:46:28;15.00;32.40
50955;DHT22;36966;48.064;-0.792;2023-03-01T07:48:47;15.00;32.40
50955;DHT22;36966;48.064;-0.792;2023-03-01T07:51:07;15.00;32.40
50955;DHT22;36966;48.064;-0.792;2023-03-01T07:53:27;15.10;32.40
50955;DHT22;36966;48.064;-0.792;2023-03-01T07:55:46;15.10;32.30
50955;DHT22;36966;48.064;-0.792;2023-03-01T07:58:05;15.10;32.30
50955;DHT22;36966;48.064;-0.792;2023-03-01T08:00:24;15.10;32.30
50955;DHT22;36966;48.064;-0.792;2023-03-01T08:02:44;15.10;32.30
50955;DHT22;36966;48.064;-0.792;2023-03-01T08:05:04;15.10;32.30
50955;DHT22;36966;48.064;-0.792;2023-03-01T08:07:24;15.20;32.30
50955;DHT22;36966;48.064;-0.792;2023-03-01T08:09:43;15.20;32.30
50955;DHT22;36966;48.064;-0.792;2023-03-01T08:12:02;15.20;32.30
50955;DHT22;36966;48.064;-0.792;2023-03-01T08:14:23;15.20;32.40
50955;DHT22;36966;48.064;-0.792;2023-03-01T08:16:42;15.20;32.40
50955;DHT22;36966;48.064;-0.792;2023-03-01T08:19:07;15.20;32.40
50955;DHT22;36966;48.064;-0.792;2023-03-01T08:21:27;15.20;32.40
50955;DHT22;36966;48.064;-0.792;2023-03-01T08:23:46;15.20;32.40
50955;DHT22;36966;48.064;-0.792;2023-03-01T08:26:13;15.30;32.30
50955;DHT22;36966;48.064;-0.792;2023-03-01T08:28:33;15.30;32.20
50955;DHT22;36966;48.064;-0.792;2023-03-01T08:30:52;15.30;32.20
50955;DHT22;36966;48.064;-0.792;2023-03-01T08:33:11;15.40;32.20
50955;DHT22;36966;48.064;-0.792;2023-03-01T08:35:30;15.40;32.20
50955;DHT22;36966;48.064;-0.792;2023-03-01T08:37:50;15.40;32.10
50955;DHT22;36966;48.064;-0.792;2023-03-01T08:40:09;15.50;32.00
50955;DHT22;36966;48.064;-0.792;2023-03-01T08:42:29;15.50;31.90
50955;DHT22;36966;48.064;-0.792;2023-03-01T08:44:48;15.50;31.90
50955;DHT22;36966;48.064;-0.792;2023-03-01T08:47:07;15.50;31.80
50955;DHT22;36966;48.064;-0.792;2023-03-01T08:49:26;15.60;31.90
50955;DHT22;36966;48.064;-0.792;2023-03-01T08:51:46;15.60;31.90
50955;DHT22;36966;48.064;-0.792;2023-03-01T08:54:09;15.60;31.70
50955;DHT22;36966;48.064;-0.792;2023-03-01T08:56:30;15.60;31.60
50955;DHT22;36966;48.064;-0.792;2023-03-01T08:58:50;15.70;31.70
50955;DHT22;36966;48.064;-0.792;2023-03-01T09:01:11;15.70;31.60
50955;DHT22;36966;48.064;-0.792;2023-03-01T09:03:30;15.70;31.60
50955;DHT22;36966;48.064;-0.792;2023-03-01T09:05:50;15.70;31.50
50955;DHT22;36966;48.064;-0.792;2023-03-01T09:08:09;15.70;31.60
50955;DHT22;36966;48.064;-0.792;2023-03-01T09:10:28;15.80;31.60
50955;DHT22;36966;48.064;-0.792;2023-03-01T09:12:47;15.80;31.60
50955;DHT22;36966;48.064;-0.792;2023-03-01T09:15:06;15.90;31.60
50955;DHT22;36966;48.064;-0.792;2023-03-01T09:17:26;15.80;31.60
50955;DHT22;36966;48.064;-0.792;2023-03-01T09:19:45;15.90;31.60
50955;DHT22;36966;48.064;-0.792;2023-03-01T09:22:04;16.00;31.60
50955;DHT22;36966;48.064;-0.792;2023-03-01T09:24:24;16.00;31.50
50955;DHT22;36966;48.064;-0.792;2023-03-01T09:26:44;16.00;31.50
50955;DHT22;36966;48.064;-0.792;2023-03-01T09:29:05;16.00;31.50
50955;DHT22;36966;48.064;-0.792;2023-03-01T09:31:24;16.10;31.50
50955;DHT22;36966;48.064;-0.792;2023-03-01T09:33:47;16.10;31.50
50955;DHT22;36966;48.064;-0.792;2023-03-01T09:36:11;16.10;31.60
50955;DHT22;36966;48.064;-0.792;2023-03-01T09:38:31;16.10;31.50
50955;DHT22;36966;48.064;-0.792;2023-03-01T09:40:50;16.10;31.40
50955;DHT22;36966;48.064;-0.792;2023-03-01T09:46:03;16.20;31.50
50955;DHT22;36966;48.064;-0.792;2023-03-01T09:48:26;16.20;31.60
50955;DHT22;36966;48.064;-0.792;2023-03-01T09:50:46;16.20;31.60
50955;DHT22;36966;48.064;-0.792;2023-03-01T09:53:10;16.30;31.50
50955;DHT22;36966;48.064;-0.792;2023-03-01T09:55:42;16.30;31.50
50955;DHT22;36966;48.064;-0.792;2023-03-01T09:58:26;16.30;31.40
50955;DHT22;36966;48.064;-0.792;2023-03-01T10:00:49;16.40;31.40
50955;DHT22;36966;48.064;-0.792;2023-03-01T10:10:40;16.50;31.30
50955;DHT22;36966;48.064;-0.792;2023-03-01T10:13:15;16.50;31.30
50955;DHT22;36966;48.064;-0.792;2023-03-01T10:15:48;16.60;31.20
50955;DHT22;36966;48.064;-0.792;2023-03-01T10:18:30;16.60;31.20
50955;DHT22;36966;48.064;-0.792;2023-03-01T10:21:00;16.70;31.20
50955;DHT22;36966;48.064;-0.792;2023-03-01T10:23:20;16.70;31.20
50955;DHT22;36966;48.064;-0.792;2023-03-01T10:28:24;16.70;31.10
50955;DHT22;36966;48.064;-0.792;2023-03-01T10:30:44;16.70;31.20
50955;DHT22;36966;48.064;-0.792;2023-03-01T10:33:15;16.80;31.20
50955;DHT22;36966;48.064;-0.792;2023-03-01T10:35:36;16.80;31.10
50955;DHT22;36966;48.064;-0.792;2023-03-01T10:38:11;16.90;31.00
50955;DHT22;36966;48.064;-0.792;2023-03-01T10:40:32;16.90;31.00
50955;DHT22;36966;48.064;-0.792;2023-03-01T10:42:52;16.90;30.90
50955;DHT22;36966;48.064;-0.792;2023-03-01T10:47:43;17.00;31.00
50955;DHT22;36966;48.064;-0.792;2023-03-01T10:50:11;17.00;31.00
50955;DHT22;36966;48.064;-0.792;2023-03-01T10:52:37;17.10;30.90
50955;DHT22;36966;48.064;-0.792;2023-03-01T10:55:21;17.10;30.80
50955;DHT22;36966;48.064;-0.792;2023-03-01T10:57:41;17.00;30.90
50955;DHT22;36966;48.064;-0.792;2023-03-01T11:00:17;17.00;31.20
50955;DHT22;36966;48.064;-0.792;2023-03-01T11:02:37;17.00;31.20
50955;DHT22;36966;48.064;-0.792;2023-03-01T11:04:58;17.00;31.20
50955;DHT22;36966;48.064;-0.792;2023-03-01T11:07:17;17.10;31.20
50955;DHT22;36966;48.064;-0.792;2023-03-01T11:09:36;17.10;31.20
50955;DHT22;36966;48.064;-0.792;2023-03-01T11:12:00;17.10;31.10
50955;DHT22;36966;48.064;-0.792;2023-03-01T11:14:47;17.10;31.00
50955;DHT22;36966;48.064;-0.792;2023-03-01T11:19:38;17.20;30.90
50955;DHT22;36966;48.064;-0.792;2023-03-01T11:22:11;17.20;30.80
50955;DHT22;36966;48.064;-0.792;2023-03-01T11:24:46;17.20;30.90
50955;DHT22;36966;48.064;-0.792;2023-03-01T11:27:23;17.20;30.60
50955;DHT22;36966;48.064;-0.792;2023-03-01T11:32:38;17.30;30.40
50955;DHT22;36966;48.064;-0.792;2023-03-01T11:35:20;17.30;30.40
50955;DHT22;36966;48.064;-0.792;2023-03-01T11:37:44;17.30;30.30
50955;DHT22;36966;48.064;-0.792;2023-03-01T11:40:15;17.30;30.20
50955;DHT22;36966;48.064;-0.792;2023-03-01T11:45:10;17.40;29.80
50955;DHT22;36966;48.064;-0.792;2023-03-01T11:50:33;17.40;29.70
50955;DHT22;36966;48.064;-0.792;2023-03-01T11:53:23;17.40;29.80
50955;DHT22;36966;48.064;-0.792;2023-03-01T12:07:46;17.40;29.80
50955;DHT22;36966;48.064;-0.792;2023-03-01T12:10:21;17.40;29.80
50955;DHT22;36966;48.064;-0.792;2023-03-01T12:20:35;17.50;29.60
50955;DHT22;36966;48.064;-0.792;2023-03-01T12:42:10;17.40;29.70
50955;DHT22;36966;48.064;-0.792;2023-03-01T12:50:42;17.50;29.80
50955;DHT22;36966;48.064;-0.792;2023-03-01T12:53:03;17.40;29.90
50955;DHT22;36966;48.064;-0.792;2023-03-01T12:57:48;17.50;29.90
50955;DHT22;36966;48.064;-0.792;2023-03-01T13:00:27;17.50;29.70
50955;DHT22;36966;48.064;-0.792;2023-03-01T13:08:16;17.50;30.00
50955;DHT22;36966;48.064;-0.792;2023-03-01T13:11:01;17.50;29.90
50955;DHT22;36966;48.064;-0.792;2023-03-01T13:13:23;17.50;29.90
50955;DHT22;36966;48.064;-0.792;2023-03-01T13:15:42;17.50;30.00
50955;DHT22;36966;48.064;-0.792;2023-03-01T13:20:47;17.50;30.00
50955;DHT22;36966;48.064;-0.792;2023-03-01T13:28:50;17.40;30.10
50955;DHT22;36966;48.064;-0.792;2023-03-01T13:36:11;17.40;30.10
50955;DHT22;36966;48.064;-0.792;2023-03-01T13:41:44;17.40;30.10
50955;DHT22;36966;48.064;-0.792;2023-03-01T13:43:56;17.40;30.20
50955;DHT22;36966;48.064;-0.792;2023-03-01T13:46:23;17.40;30.30
50955;DHT22;36966;48.064;-0.792;2023-03-01T13:48:45;17.40;30.30
50955;DHT22;36966;48.064;-0.792;2023-03-01T13:51:09;17.30;30.30
50955;DHT22;36966;48.064;-0.792;2023-03-01T13:53:33;17.40;30.50
50955;DHT22;36966;48.064;-0.792;2023-03-01T13:56:09;17.40;30.30
50955;DHT22;36966;48.064;-0.792;2023-03-01T13:58:32;17.30;30.60
50955;DHT22;36966;48.064;-0.792;2023-03-01T14:01:06;17.30;30.40
50955;DHT22;36966;48.064;-0.792;2023-03-01T14:03:27;17.30;30.50
50955;DHT22;36966;48.064;-0.792;2023-03-01T14:08:24;17.30;30.40
50955;DHT22;36966;48.064;-0.792;2023-03-01T14:13:47;17.30;30.70
50955;DHT22;36966;48.064;-0.792;2023-03-01T14:18:47;17.30;30.90
50955;DHT22;36966;48.064;-0.792;2023-03-01T14:21:13;17.30;31.00
50955;DHT22;36966;48.064;-0.792;2023-03-01T14:23:33;17.30;31.00
50955;DHT22;36966;48.064;-0.792;2023-03-01T14:25:55;17.20;31.00
50955;DHT22;36966;48.064;-0.792;2023-03-01T14:28:21;17.30;31.00
50955;DHT22;36966;48.064;-0.792;2023-03-01T14:30:52;17.30;31.00
50955;DHT22;36966;48.064;-0.792;2023-03-01T14:33:34;17.30;31.00
50955;DHT22;36966;48.064;-0.792;2023-03-01T14:36:11;17.20;31.00
50955;DHT22;36966;48.064;-0.792;2023-03-01T14:38:39;17.20;31.00
50955;DHT22;36966;48.064;-0.792;2023-03-01T14:41:06;17.20;31.00
50955;DHT22;36966;48.064;-0.792;2023-03-01T14:43:27;17.30;31.00
50955;DHT22;36966;48.064;-0.792;2023-03-01T14:45:49;17.20;31.10
50955;DHT22;36966;48.064;-0.792;2023-03-01T14:48:11;17.20;31.10
50955;DHT22;36966;48.064;-0.792;2023-03-01T14:50:34;17.20;31.10
50955;DHT22;36966;48.064;-0.792;2023-03-01T14:52:59;17.20;31.10
50955;DHT22;36966;48.064;-0.792;2023-03-01T14:57:49;17.20;31.10
50955;DHT22;36966;48.064;-0.792;2023-03-01T15:00:18;17.20;31.20
50955;DHT22;36966;48.064;-0.792;2023-03-01T15:02:38;17.20;31.20
50955;DHT22;36966;48.064;-0.792;2023-03-01T15:05:01;17.20;31.20
50955;DHT22;36966;48.064;-0.792;2023-03-01T15:07:21;17.20;31.20
50955;DHT22;36966;48.064;-0.792;2023-03-01T15:09:41;17.20;31.20
50955;DHT22;36966;48.064;-0.792;2023-03-01T15:12:00;17.10;31.20
50955;DHT22;36966;48.064;-0.792;2023-03-01T15:14:43;17.10;31.20
50955;DHT22;36966;48.064;-0.792;2023-03-01T15:17:03;17.10;31.20
50955;DHT22;36966;48.064;-0.792;2023-03-01T15:19:24;17.10;31.30
50955;DHT22;36966;48.064;-0.792;2023-03-01T15:21:49;17.10;31.30
50955;DHT22;36966;48.064;-0.792;2023-03-01T15:26:42;17.10;31.30
50955;DHT22;36966;48.064;-0.792;2023-03-01T15:29:03;17.10;31.30
50955;DHT22;36966;48.064;-0.792;2023-03-01T15:31:28;17.00;31.30
50955;DHT22;36966;48.064;-0.792;2023-03-01T15:33:48;17.00;31.40
50955;DHT22;36966;48.064;-0.792;2023-03-01T15:38:56;17.00;31.40
50955;DHT22;36966;48.064;-0.792;2023-03-01T15:43:46;17.00;31.40
50955;DHT22;36966;48.064;-0.792;2023-03-01T15:46:11;17.00;31.50
50955;DHT22;36966;48.064;-0.792;2023-03-01T15:48:32;17.00;31.40
50955;DHT22;36966;48.064;-0.792;2023-03-01T15:50:59;17.00;31.50
50955;DHT22;36966;48.064;-0.792;2023-03-01T15:53:18;16.90;31.50
50955;DHT22;36966;48.064;-0.792;2023-03-01T15:55:37;17.00;31.50
50955;DHT22;36966;48.064;-0.792;2023-03-01T15:58:03;16.90;31.50
50955;DHT22;36966;48.064;-0.792;2023-03-01T16:00:24;16.90;31.60
50955;DHT22;36966;48.064;-0.792;2023-03-01T16:02:43;16.90;31.60
50955;DHT22;36966;48.064;-0.792;2023-03-01T16:05:03;16.90;31.60
50955;DHT22;36966;48.064;-0.792;2023-03-01T16:07:22;16.90;31.60
50955;DHT22;36966;48.064;-0.792;2023-03-01T16:09:41;16.90;31.60
50955;DHT22;36966;48.064;-0.792;2023-03-01T16:12:02;16.90;31.60
50955;DHT22;36966;48.064;-0.792;2023-03-01T16:14:22;16.80;31.60
50955;DHT22;36966;48.064;-0.792;2023-03-01T16:16:41;16.90;31.70
50955;DHT22;36966;48.064;-0.792;2023-03-01T16:19:00;16.90;31.70
50955;DHT22;36966;48.064;-0.792;2023-03-01T16:21:24;16.90;31.80
50955;DHT22;36966;48.064;-0.792;2023-03-01T16:23:44;16.90;31.80
50955;DHT22;36966;48.064;-0.792;2023-03-01T16:26:03;16.80;31.80
50955;DHT22;36966;48.064;-0.792;2023-03-01T16:28:23;16.80;31.80
50955;DHT22;36966;48.064;-0.792;2023-03-01T16:30:46;16.80;31.90
50955;DHT22;36966;48.064;-0.792;2023-03-01T16:33:07;16.80;31.90
50955;DHT22;36966;48.064;-0.792;2023-03-01T16:35:27;16.80;31.90
50955;DHT22;36966;48.064;-0.792;2023-03-01T16:37:48;16.80;31.90
50955;DHT22;36966;48.064;-0.792;2023-03-01T16:42:36;16.80;31.90
50955;DHT22;36966;48.064;-0.792;2023-03-01T16:44:56;16.80;31.90
50955;DHT22;36966;48.064;-0.792;2023-03-01T16:47:15;16.80;32.00
50955;DHT22;36966;48.064;-0.792;2023-03-01T16:49:34;16.80;32.00
50955;DHT22;36966;48.064;-0.792;2023-03-01T16:51:53;16.70;32.00